Time;durP1;ratioP1;P1;durP2;ratioP2;P2;SDS_P1;SDS_P2;PMS_P1;PMS_P2;Temp;Humidity;BMP_temperature;BMP_pressure;BME280_temperature;BME280_humidity;BME280_pressure;Samples;Min_cycle;Max_cycle;Signal;HPM_P1;HPM_P2
2021/07/27 00:01:19;;;;;;;9.95;3.03;;;;;;;14.65;100.00;98629.38;5035099;28;20040;-67
2021/07/27 00:03:45;;;;;;;5.88;2.85;;;;;;;14.89;100.00;98656.66;5051400;28;20087;-67
2021/07/27 00:06:11;;;;;;;12.23;3.55;;;;;;;14.75;100.00;98630.69;5048391;28;20095;-67
2021/07/27 00:08:38;;;;;;;10.93;3.00;;;;;;;14.67;100.00;98634.56;5048838;28;20445;-67
2021/07/27 00:11:06;;;;;;;15.10;3.17;;;;;;;14.60;100.00;98631.16;5052106;28;20043;-67
2021/07/27 00:13:31;;;;;;;11.90;3.00;;;;;;;14.73;100.00;98651.91;5048906;28;20047;-67
2021/07/27 00:15:56;;;;;;;11.50;3.20;;;;;;;14.73;100.00;98649.19;5051158;28;20052;-68
2021/07/27 00:18:22;;;;;;;8.85;3.13;;;;;;;14.84;100.00;98651.91;5050621;28;20482;-67
2021/07/27 00:20:48;;;;;;;14.05;3.67;;;;;;;14.86;100.00;98651.69;5051579;28;20061;-68
2021/07/27 00:23:13;;;;;;;11.95;3.95;;;;;;;14.79;100.00;98649.06;5051279;28;20059;-68
2021/07/27 00:25:40;;;;;;;5.95;3.90;;;;;;;14.75;100.00;98657.91;5050447;28;20028;-68
2021/07/27 00:28:06;;;;;;;11.68;4.18;;;;;;;14.70;100.00;98653.19;5051723;28;20087;-68
2021/07/27 00:30:31;;;;;;;12.40;3.80;;;;;;;14.74;100.00;98646.19;5051945;28;20043;-68
2021/07/27 00:32:56;;;;;;;9.25;3.63;;;;;;;14.71;100.00;98643.13;5050595;28;20025;-67
2021/07/27 00:35:22;;;;;;;13.90;4.03;;;;;;;14.69;100.00;98649.63;5048212;28;20033;-67
2021/07/27 00:37:57;;;;;;;10.95;3.67;;;;;;;14.72;100.00;98644.78;5051790;28;20035;-69
2021/07/27 00:40:23;;;;;;;13.02;4.05;;;;;;;14.69;100.00;98638.72;5051051;28;20025;-67
2021/07/27 00:42:49;;;;;;;11.10;3.80;;;;;;;14.69;100.00;98641.44;5051058;28;20029;-67
2021/07/27 00:45:16;;;;;;;8.43;3.78;;;;;;;14.76;100.00;98635.91;5051104;28;20071;-67
2021/07/27 00:47:42;;;;;;;17.35;3.70;;;;;;;14.79;100.00;98631.88;5051039;28;20021;-67
2021/07/27 00:50:09;;;;;;;5.03;2.97;;;;;;;14.74;100.00;98639.94;5045045;28;20063;-68
2021/07/27 00:52:36;;;;;;;10.68;3.67;;;;;;;14.67;100.00;98631.84;5050817;28;20040;-67
2021/07/27 00:55:02;;;;;;;8.73;4.25;;;;;;;14.61;100.00;98632.81;5050928;28;20028;-67
2021/07/27 00:57:29;;;;;;;9.13;3.90;;;;;;;14.65;100.00;98628.56;5051523;28;20039;-68
2021/07/27 00:59:55;;;;;;;6.10;3.63;;;;;;;14.68;100.00;98633.53;5032631;28;20028;-68
2021/07/27 01:02:21;;;;;;;8.52;3.80;;;;;;;14.49;100.00;98605.53;5050848;28;20028;-67
2021/07/27 01:04:46;;;;;;;7.18;4.05;;;;;;;14.67;100.00;98640.03;5014008;28;1042844;-67
2021/07/27 01:07:11;;;;;;;8.95;3.63;;;;;;;14.59;100.00;98635.78;5033648;28;20064;-67
2021/07/27 01:09:37;;;;;;;17.17;4.10;;;;;;;14.50;100.00;98626.25;5033758;28;20063;-68
2021/07/27 01:12:03;;;;;;;8.75;2.88;;;;;;;14.29;100.00;98608.56;5051222;28;20043;-68
2021/07/27 01:14:28;;;;;;;10.35;2.88;;;;;;;14.32;100.00;98615.41;5051786;28;20108;-68
2021/07/27 01:16:54;;;;;;;7.82;3.10;;;;;;;14.15;100.00;98621.53;5051626;28;20036;-67
2021/07/27 01:19:43;;;;;;;15.18;3.42;;;;;;;14.03;100.00;98623.38;5033349;28;20025;-70
2021/07/27 01:42:03;;;;;;;12.88;3.22;;;;;;;14.44;100.00;98624.47;5055784;28;20032;-68
2021/07/27 01:43:47;;;;;;;8.73;3.08;;;;;;;14.41;100.00;98623.03;5055079;28;20110;-68
2021/07/27 01:46:16;;;;;;;10.27;3.30;;;;;;;14.25;100.00;98615.50;5053750;28;20028;-68
2021/07/27 01:48:43;;;;;;;9.23;3.08;;;;;;;14.15;100.00;98616.09;5053484;28;20019;-69
2021/07/27 01:51:08;;;;;;;8.45;2.42;;;;;;;14.00;100.00;98637.44;5051247;28;20041;-68
2021/07/27 01:53:34;;;;;;;9.52;3.05;;;;;;;13.88;100.00;98628.38;5054734;28;20025;-68
2021/07/27 01:56:00;;;;;;;7.07;2.97;;;;;;;13.81;100.00;98607.53;5055015;28;20592;-69
2021/07/27 01:58:25;;;;;;;7.50;3.08;;;;;;;13.85;100.00;98634.28;5055557;28;20025;-69
2021/07/27 02:00:50;;;;;;;7.47;3.70;;;;;;;13.81;100.00;98642.06;5053106;28;20052;-68
2021/07/27 02:03:16;;;;;;;6.63;2.80;;;;;;;13.58;100.00;98618.28;5035796;28;20033;-68
2021/07/27 02:05:44;;;;;;;14.63;4.07;;;;;;;13.58;100.00;98621.00;5054351;22;20099;-68
2021/07/27 02:08:09;;;;;;;10.43;3.28;;;;;;;13.65;100.00;98639.94;5036974;28;20036;-69
2021/07/27 02:10:36;;;;;;;8.60;3.75;;;;;;;13.77;100.00;98651.72;5034471;28;20028;-68
2021/07/27 02:13:25;;;;;;;13.00;3.63;;;;;;;13.89;100.00;98659.97;5037103;28;20040;-68
2021/07/27 02:15:51;;;;;;;7.82;3.80;;;;;;;14.05;100.00;98653.91;5036342;28;20021;-68
2021/07/27 02:18:16;;;;;;;12.98;3.58;;;;;;;14.17;100.00;98652.06;5036774;28;20091;-68
2021/07/27 02:20:47;;;;;;;7.13;4.13;;;;;;;14.16;100.00;98658.53;5046066;28;20137;-68
2021/07/27 02:23:12;;;;;;;11.48;3.80;;;;;;;14.03;100.00;98653.28;5035828;28;20025;-68
2021/07/27 02:25:37;;;;;;;9.77;3.60;;;;;;;14.17;100.00;98659.38;5036845;28;20481;-68
2021/07/27 02:28:03;;;;;;;9.77;3.80;;;;;;;14.15;100.00;98656.91;5039476;28;20033;-68
2021/07/27 02:30:32;;;;;;;9.23;4.07;;;;;;;14.22;100.00;98651.34;5048063;28;20107;-68
2021/07/27 02:32:58;;;;;;;9.35;3.70;;;;;;;14.12;100.00;98656.50;5051005;28;20057;-68
2021/07/27 02:35:28;;;;;;;4.95;3.35;;;;;;;14.07;100.00;98670.81;5035208;28;20060;-66
2021/07/27 02:37:54;;;;;;;5.05;3.00;;;;;;;13.87;100.00;98649.31;5036850;28;20082;-67
2021/07/27 02:40:19;;;;;;;4.55;2.97;;;;;;;13.85;100.00;98656.84;5034758;28;20029;-68
2021/07/27 02:42:44;;;;;;;7.93;3.92;;;;;;;13.60;100.00;98637.94;5037568;28;20029;-67
2021/07/27 02:45:11;;;;;;;13.20;3.78;;;;;;;13.64;100.00;98660.03;5042989;28;20082;-68
2021/07/27 02:47:41;;;;;;;9.07;3.90;;;;;;;13.73;100.00;98669.56;5017338;28;20044;-68
2021/07/27 02:50:07;;;;;;;16.73;4.30;;;;;;;13.71;100.00;98649.94;5038096;28;20100;-68
2021/07/27 02:52:34;;;;;;;10.73;3.97;;;;;;;13.64;100.00;98644.56;5042702;28;20159;-68
2021/07/27 02:54:59;;;;;;;9.63;3.22;;;;;;;13.70;100.00;98654.53;5035374;28;20029;-68
2021/07/27 02:57:24;;;;;;;8.77;3.58;;;;;;;13.65;100.00;98648.09;5016805;28;20025;-68
2021/07/27 02:59:50;;;;;;;8.73;3.63;;;;;;;13.78;100.00;98667.81;5034588;28;20032;-67
2021/07/27 03:02:20;;;;;;;8.02;4.38;;;;;;;13.99;100.00;98665.66;5042289;28;20026;-68
2021/07/27 03:04:45;;;;;;;7.10;3.53;;;;;;;14.00;100.00;98662.72;5044048;28;20021;-68
2021/07/27 03:07:18;;;;;;;7.05;4.07;;;;;;;14.06;100.00;98641.13;5039612;28;20040;-68
2021/07/27 03:10:17;;;;;;;10.43;3.95;;;;;;;13.94;100.00;98650.06;5026530;28;20025;-67
2021/07/27 03:12:28;;;;;;;6.78;3.00;;;;;;;13.98;100.00;98647.69;5034879;28;20037;-68
2021/07/27 03:14:59;;;;;;;9.05;3.17;;;;;;;13.86;100.00;98663.97;5053229;28;20013;-68
2021/07/27 03:17:25;;;;;;;5.78;3.00;;;;;;;13.75;100.00;98665.56;5046260;28;20053;-67
2021/07/27 03:19:50;;;;;;;5.68;2.78;;;;;;;13.70;100.00;98664.56;5039795;28;20030;-67
2021/07/27 03:22:16;;;;;;;13.18;3.72;;;;;;;13.69;100.00;98662.91;5034469;28;20052;-68
2021/07/27 03:24:41;;;;;;;12.30;3.80;;;;;;;13.66;100.00;98666.09;5039406;28;20017;-68
2021/07/27 03:27:06;;;;;;;11.30;3.40;;;;;;;13.58;100.00;98659.06;5016304;28;20029;-66
2021/07/27 03:29:31;;;;;;;13.38;3.60;;;;;;;13.48;100.00;98643.28;5035754;28;20040;-68
2021/07/27 03:31:59;;;;;;;10.68;3.60;;;;;;;13.72;100.00;98666.00;5037125;28;20103;-67
2021/07/27 03:34:24;;;;;;;6.80;3.75;;;;;;;13.76;100.00;98669.94;5047223;28;20026;-66
2021/07/27 03:36:50;;;;;;;11.40;3.60;;;;;;;13.69;100.00;98669.19;5042039;28;20028;-67
2021/07/27 03:39:16;;;;;;;9.73;3.80;;;;;;;13.71;100.00;98668.97;5037459;28;20087;-67
2021/07/27 03:41:42;;;;;;;7.60;4.15;;;;;;;13.68;100.00;98645.78;5037641;28;20382;-67
2021/07/27 03:44:07;;;;;;;9.43;3.97;;;;;;;14.03;100.00;98675.03;5048536;28;20029;-67
2021/07/27 03:46:33;;;;;;;12.80;4.35;;;;;;;14.18;100.00;98672.75;5044375;28;20043;-68
2021/07/27 03:48:58;;;;;;;7.53;3.50;;;;;;;14.10;100.00;98653.22;5016807;28;20399;-68
2021/07/27 03:51:23;;;;;;;10.02;3.60;;;;;;;14.12;100.00;98657.38;5046223;28;20854;-67
2021/07/27 03:53:48;;;;;;;7.13;3.45;;;;;;;14.03;100.00;98656.81;5016363;28;20052;-68
2021/07/27 03:56:14;;;;;;;8.77;3.15;;;;;;;14.21;100.00;98660.59;5033311;28;20120;-67
2021/07/27 03:58:43;;;;;;;4.47;3.25;;;;;;;14.02;100.00;98651.63;5042572;28;20504;-68
2021/07/27 04:01:08;;;;;;;12.20;3.83;;;;;;;13.99;100.00;98660.22;5015129;28;20063;-69
2021/07/27 04:03:34;;;;;;;13.98;4.30;;;;;;;14.02;100.00;98668.78;5038163;28;20104;-71
2021/07/27 04:05:59;;;;;;;7.80;3.55;;;;;;;14.03;100.00;98669.59;5042434;28;20025;-73
2021/07/27 04:08:24;;;;;;;7.35;3.55;;;;;;;13.95;100.00;98646.25;5017492;28;20025;-72
2021/07/27 04:10:50;;;;;;;7.57;3.58;;;;;;;14.02;100.00;98662.50;5045554;28;20025;-73
2021/07/27 04:13:16;;;;;;;8.90;3.80;;;;;;;13.94;100.00;98646.50;5030235;28;20113;-73
2021/07/27 04:15:41;;;;;;;6.80;3.60;;;;;;;14.15;100.00;98656.06;5017440;28;20018;-73
2021/07/27 04:18:07;;;;;;;12.07;4.10;;;;;;;14.08;100.00;98650.72;5050349;28;20103;-72
2021/07/27 04:20:32;;;;;;;13.25;4.80;;;;;;;14.21;100.00;98661.41;5033347;28;20052;-72
2021/07/27 04:22:57;;;;;;;7.40;4.80;;;;;;;14.21;100.00;98650.53;5036775;28;20440;-72
2021/07/27 04:25:23;;;;;;;14.70;4.10;;;;;;;14.37;100.00;98668.09;5033081;28;20025;-72
2021/07/27 04:27:48;;;;;;;7.82;3.78;;;;;;;14.32;100.00;98648.06;5036946;28;20159;-72
2021/07/27 04:30:13;;;;;;;6.00;3.50;;;;;;;14.37;100.00;98654.47;5034606;28;20033;-72
2021/07/27 04:32:39;;;;;;;11.63;3.28;;;;;;;14.45;100.00;98656.06;5014801;28;20032;-70
2021/07/27 04:35:08;;;;;;;9.77;4.03;;;;;;;14.36;100.00;98624.78;5027085;28;20024;-70
2021/07/27 04:37:33;;;;;;;10.60;4.15;;;;;;;14.46;100.00;98620.44;5036520;28;20029;-70
2021/07/27 04:39:59;;;;;;;8.50;3.90;;;;;;;14.60;100.00;98628.44;5032896;28;20040;-71
2021/07/27 04:42:24;;;;;;;8.00;3.45;;;;;;;14.75;100.00;98647.03;5032941;28;20032;-71
2021/07/27 04:44:49;;;;;;;6.13;3.70;;;;;;;14.81;100.00;98635.22;5039615;28;20029;-71
2021/07/27 04:47:15;;;;;;;7.38;3.65;;;;;;;14.94;100.00;98643.16;5032505;28;20025;-71
2021/07/27 04:49:40;;;;;;;7.93;3.63;;;;;;;15.08;100.00;98654.66;5034513;28;20107;-71
2021/07/27 04:52:05;;;;;;;8.75;3.92;;;;;;;15.19;100.00;98647.53;5046480;28;20025;-72
2021/07/27 04:54:41;;;;;;;10.32;3.85;;;;;;;15.13;100.00;98616.63;5026346;28;20071;-69
2021/07/27 04:57:09;;;;;;;9.48;3.53;;;;;;;15.28;99.19;98637.97;5040547;28;20027;-67
2021/07/27 04:59:35;;;;;;;8.63;3.55;;;;;;;15.41;99.38;98645.88;5041554;28;20056;-69
2021/07/27 05:02:00;;;;;;;8.40;3.50;;;;;;;15.34;98.96;98654.19;5020066;28;20053;-68
2021/07/27 05:04:26;;;;;;;9.57;3.47;;;;;;;15.36;99.93;98645.78;5048604;28;20079;-69
2021/07/27 05:06:52;;;;;;;8.68;4.07;;;;;;;15.41;99.91;98632.25;5034350;28;20076;-70
2021/07/27 05:09:17;;;;;;;5.85;3.80;;;;;;;15.61;100.00;98645.47;5041500;28;20032;-71
2021/07/27 05:11:42;;;;;;;4.43;3.08;;;;;;;15.77;99.04;98649.41;5051183;28;20733;-71
2021/07/27 05:14:08;;;;;;;10.73;4.13;;;;;;;15.89;96.24;98644.75;5045351;28;20539;-71
2021/07/27 05:16:33;;;;;;;10.18;3.58;;;;;;;16.01;94.58;98628.34;5015499;28;20025;-69
2021/07/27 05:19:01;;;;;;;7.18;3.70;;;;;;;16.08;94.69;98639.09;5044821;28;20017;-69
2021/07/27 05:21:27;;;;;;;4.88;3.90;;;;;;;16.17;93.25;98638.50;5032202;28;20025;-71
2021/07/27 05:23:52;;;;;;;6.75;3.38;;;;;;;16.27;93.89;98637.84;5031828;28;20018;-72
2021/07/27 05:26:18;;;;;;;5.88;3.63;;;;;;;16.45;92.46;98634.06;5039382;28;20033;-71
2021/07/27 05:28:44;;;;;;;12.68;4.10;;;;;;;16.53;91.21;98627.38;5032531;28;20021;-68
2021/07/27 05:31:09;;;;;;;12.02;3.90;;;;;;;16.63;91.00;98624.81;5031972;28;20465;-74
2021/07/27 05:33:34;;;;;;;13.63;3.38;;;;;;;16.81;90.50;98635.53;5043312;28;20021;-74
2021/07/27 05:36:00;;;;;;;10.48;4.28;;;;;;;16.92;89.77;98635.72;5040965;28;20427;-67
2021/07/27 05:38:25;;;;;;;10.00;3.85;;;;;;;17.24;89.00;98636.78;5036508;28;20116;-68
2021/07/27 05:40:51;;;;;;;10.45;3.95;;;;;;;17.27;87.75;98640.91;5042514;28;20032;-71
2021/07/27 05:43:17;;;;;;;9.20;4.22;;;;;;;17.24;87.91;98625.84;5043169;28;20371;-71
2021/07/27 05:45:42;;;;;;;7.13;3.83;;;;;;;17.43;87.62;98609.16;5021819;28;20029;-72
2021/07/27 05:48:07;;;;;;;8.77;4.03;;;;;;;17.73;86.09;98639.63;5031907;28;20037;-72
2021/07/27 05:50:32;;;;;;;7.32;3.60;;;;;;;18.11;85.40;98634.38;5032728;28;20041;-73
2021/07/27 05:52:58;;;;;;;8.88;4.00;;;;;;;18.03;84.80;98615.69;5018818;28;20037;-67
2021/07/27 05:55:23;;;;;;;8.48;3.92;;;;;;;18.47;83.61;98618.31;5031507;28;20026;-67
2021/07/27 05:57:48;;;;;;;5.10;3.60;;;;;;;18.71;83.36;98625.13;5034694;28;20557;-68
2021/07/27 06:00:14;;;;;;;6.68;4.10;;;;;;;18.93;81.59;98626.97;5050534;28;20025;-67
2021/07/27 06:02:39;;;;;;;7.13;3.80;;;;;;;18.81;81.58;98636.22;5041863;28;20025;-68
2021/07/27 06:05:05;;;;;;;8.60;3.80;;;;;;;19.14;82.39;98626.03;5040110;28;20395;-68
2021/07/27 06:07:31;;;;;;;7.68;4.20;;;;;;;19.46;83.01;98614.97;5033301;28;20293;-67
2021/07/27 06:09:57;;;;;;;8.80;4.05;;;;;;;19.64;82.45;98612.88;5031815;28;20021;-69
2021/07/27 06:12:22;;;;;;;7.70;3.30;;;;;;;19.97;82.11;98621.84;5037984;28;20055;-67
2021/07/27 06:14:47;;;;;;;6.28;3.63;;;;;;;20.35;80.28;98615.88;5047523;28;20017;-68
2021/07/27 06:17:13;;;;;;;5.18;3.15;;;;;;;20.67;75.27;98625.03;5045066;28;20467;-66
2021/07/27 06:19:38;;;;;;;9.35;3.25;;;;;;;20.86;73.80;98628.91;5038488;28;20025;-68
2021/07/27 06:22:04;;;;;;;6.13;3.22;;;;;;;20.90;72.66;98609.91;5035746;28;20053;-68
2021/07/27 06:24:29;;;;;;;6.80;3.20;;;;;;;21.32;71.23;98611.53;5040703;28;20036;-67
2021/07/27 06:26:54;;;;;;;6.07;3.40;;;;;;;21.67;69.08;98613.41;5044631;28;20025;-68
2021/07/27 06:29:19;;;;;;;7.68;3.53;;;;;;;22.01;67.09;98620.97;5040462;28;20021;-69
2021/07/27 06:31:45;;;;;;;5.93;3.25;;;;;;;22.21;67.46;98620.06;5038045;28;20040;-69
2021/07/27 06:34:10;;;;;;;7.45;3.00;;;;;;;22.22;67.22;98627.25;5042592;28;20026;-69
2021/07/27 06:36:35;;;;;;;5.82;2.78;;;;;;;22.86;65.72;98625.41;5042632;28;20024;-71
2021/07/27 06:39:01;;;;;;;5.05;3.33;;;;;;;23.14;63.94;98629.34;5050505;28;20845;-67
2021/07/27 06:41:26;;;;;;;4.65;3.15;;;;;;;;;;5042290;28;20082;-68
2021/07/27 06:43:51;;;;;;;7.55;3.35;;;;;;;22.48;63.83;98637.00;5030696;28;20027;-66
2021/07/27 06:46:17;;;;;;;5.97;3.58;;;;;;;22.78;63.31;98620.53;5038721;28;20407;-71
2021/07/27 06:48:43;;;;;;;5.47;3.30;;;;;;;22.11;64.64;98607.13;5031917;28;20024;-70
2021/07/27 06:51:13;;;;;;;4.43;3.10;;;;;;;21.92;65.94;98625.41;5030425;28;20013;-71
2021/07/27 06:53:39;;;;;;;4.53;3.33;;;;;;;21.86;66.49;98624.63;5021012;28;20487;-69
2021/07/27 06:56:08;;;;;;;6.28;3.08;;;;;;;21.77;67.89;98640.91;5054468;28;20394;-69
2021/07/27 06:58:35;;;;;;;7.72;3.03;;;;;;;22.05;66.50;98647.66;5054615;28;20554;-66
2021/07/27 07:01:07;;;;;;;5.40;3.10;;;;;;;23.80;61.76;98648.00;5054201;28;20037;-68
2021/07/27 07:03:33;;;;;;;7.07;2.83;;;;;;;26.17;54.04;98646.72;5044551;28;20021;-69
2021/07/27 07:05:58;;;;;;;7.20;3.20;;;;;;;25.92;53.79;98628.66;5022989;28;20156;-70
2021/07/27 07:08:24;;;;;;;4.45;3.00;;;;;;;24.59;57.98;98647.56;5044018;28;20499;-69
2021/07/27 07:11:00;;;;;;;6.50;2.85;;;;;;;24.31;59.08;98654.81;5039402;28;20146;-68
2021/07/27 07:13:26;;;;;;;5.13;3.03;;;;;;;23.78;60.98;98661.28;5028231;28;20021;-69
2021/07/27 07:15:53;;;;;;;9.98;2.85;;;;;;;23.78;59.89;98652.19;5052032;28;20071;-71
2021/07/27 07:18:19;;;;;;;9.10;3.25;;;;;;;25.71;54.73;98650.38;5045631;28;20480;-72
2021/07/27 07:20:44;;;;;;;8.95;2.78;;;;;;;25.91;53.96;98648.38;5040397;28;20380;-69
2021/07/27 07:23:10;;;;;;;6.22;3.03;;;;;;;24.52;58.00;98652.63;5035104;28;20024;-70
2021/07/27 07:25:39;;;;;;;6.85;3.00;;;;;;;23.91;60.56;98653.41;5043346;28;20095;-68
2021/07/27 07:28:04;;;;;;;;;;;;;;;25.19;56.53;98654.41;5039467;28;20692;-68
2021/07/27 07:30:30;;;;;;;6.07;3.05;;;;;;;26.49;52.87;98664.34;5042030;28;19913;-68
2021/07/27 07:32:55;;;;;;;5.78;2.80;;;;;;;28.46;48.61;98654.28;5021369;28;20032;-67
2021/07/27 07:35:23;;;;;;;5.63;2.90;;;;;;;29.72;45.82;98641.22;5016368;28;20025;-68
2021/07/27 07:37:48;;;;;;;6.68;3.35;;;;;;;30.52;43.80;98664.44;5042555;28;20032;-69
2021/07/27 07:40:14;;;;;;;4.32;3.08;;;;;;;30.18;42.71;98637.53;5050936;28;20029;-69
2021/07/27 07:42:39;;;;;;;5.80;2.90;;;;;;;27.61;48.61;98660.78;5044480;28;20029;-67
2021/07/27 07:45:05;;;;;;;5.63;3.33;;;;;;;25.64;52.85;98661.06;5038029;28;20409;-66
2021/07/27 07:47:30;;;;;;;4.65;3.38;;;;;;;26.09;51.81;98638.28;5033426;28;20139;-67
2021/07/27 07:49:58;;;;;;;4.57;2.90;;;;;;;29.82;44.60;98650.03;5037763;28;20039;-70
2021/07/27 07:52:23;;;;;;;3.83;2.83;;;;;;;30.56;42.23;98651.44;5046336;28;20033;-70
2021/07/27 07:54:49;;;;;;;4.95;2.90;;;;;;;29.67;44.06;98645.00;5049328;28;20043;-66
2021/07/27 07:57:14;;;;;;;7.53;2.95;;;;;;;28.83;45.56;98650.03;5025415;28;20036;-68
2021/07/27 07:59:39;;;;;;;6.85;3.35;;;;;;;29.05;43.94;98646.25;5037159;28;20025;-68
2021/07/27 08:02:04;;;;;;;7.43;2.97;;;;;;;30.84;41.52;98636.13;5053407;28;20070;-73
2021/07/27 08:06:57;;;;;;;4.80;2.67;;;;;;;33.05;37.23;98630.69;5052731;28;20036;-72
2021/07/27 08:09:23;;;;;;;4.70;2.75;;;;;;;33.14;38.53;98635.00;5049096;28;20028;-69
2021/07/27 08:11:48;;;;;;;4.75;2.80;;;;;;;34.05;37.27;98633.34;5038259;28;20372;-73
2021/07/27 08:14:14;;;;;;;4.63;2.50;;;;;;;34.18;35.14;98640.50;5036706;28;20079;-71
2021/07/27 08:16:39;;;;;;;3.63;2.55;;;;;;;33.16;37.02;98637.41;5037660;28;20032;-71
2021/07/27 08:19:04;;;;;;;3.55;2.83;;;;;;;33.75;35.89;98636.63;5043576;28;20025;-72
2021/07/27 08:21:30;;;;;;;5.03;2.80;;;;;;;32.60;37.55;98638.19;5035926;28;20040;-74
2021/07/27 08:23:55;;;;;;;5.57;2.75;;;;;;;31.50;38.97;98652.13;5041086;28;20036;-73
2021/07/27 08:26:21;;;;;;;6.60;3.03;;;;;;;30.35;39.71;98647.81;5045168;28;20441;-76
2021/07/27 08:28:46;;;;;;;6.00;2.85;;;;;;;30.86;39.10;98643.00;5051063;28;20032;-76
2021/07/27 08:31:13;;;;;;;6.40;2.88;;;;;;;30.56;38.53;98636.66;5042324;28;20414;-77
2021/07/27 08:33:40;;;;;;;4.18;2.80;;;;;;;32.32;36.09;98638.06;5049103;28;20037;-78
2021/07/27 08:36:05;;;;;;;3.60;2.80;;;;;;;31.33;37.14;98647.50;5047157;28;20033;-75
2021/07/27 08:38:34;;;;;;;5.15;3.15;;;;;;;31.40;37.60;98637.41;5045504;28;20025;-79
2021/07/27 08:41:00;;;;;;;3.50;2.95;;;;;;;32.63;35.03;98640.28;5038875;28;20103;-71
2021/07/27 08:43:25;;;;;;;4.93;2.90;;;;;;;34.65;31.28;98650.84;5032898;28;20422;-73
2021/07/27 08:45:51;;;;;;;6.57;2.67;;;;;;;34.49;32.25;98633.19;5020487;28;20035;-74
2021/07/27 08:48:17;;;;;;;4.43;3.22;;;;;;;34.40;31.80;98626.97;5045951;28;20033;-73
2021/07/27 08:50:44;;;;;;;5.03;2.72;;;;;;;35.75;30.60;98642.22;5046471;28;20490;-73
2021/07/27 08:53:09;;;;;;;2.92;2.45;;;;;;;34.29;33.56;98637.13;5053016;28;20033;-72
2021/07/27 08:55:35;;;;;;;3.50;2.47;;;;;;;34.29;32.89;98637.94;5053195;28;20039;-75
2021/07/27 08:58:00;;;;;;;4.32;2.65;;;;;;;34.95;32.16;98635.41;5041519;28;20060;-69
2021/07/27 09:00:27;;;;;;;4.55;3.00;;;;;;;34.55;31.71;98626.09;5036288;28;20029;-69
2021/07/27 09:02:53;;;;;;;4.35;2.80;;;;;;;33.28;33.35;98634.56;5022277;28;20068;-70
2021/07/27 09:05:19;;;;;;;6.78;3.10;;;;;;;33.89;33.12;98633.34;5037810;28;20075;-72
2021/07/27 09:07:45;;;;;;;6.05;3.00;;;;;;;34.73;32.40;98651.00;5032484;28;20530;-71
2021/07/27 09:10:14;;;;;;;4.63;2.83;;;;;;;35.16;32.08;98646.28;5033652;28;20052;-70
2021/07/27 09:12:59;;;;;;;4.10;2.63;;;;;;;35.15;32.62;98645.50;5036586;28;20525;-71
2021/07/27 09:15:30;;;;;;;5.63;3.22;;;;;;;36.24;30.22;98635.00;5050482;28;20029;-74
2021/07/27 09:18:00;;;;;;;4.22;3.13;;;;;;;35.36;31.34;98633.84;5037209;28;20070;-71
2021/07/27 09:20:39;;;;;;;4.45;2.80;;;;;;;35.30;30.71;98638.16;5040617;28;20482;-71
2021/07/27 09:23:06;;;;;;;5.03;3.47;;;;;;;34.98;32.45;98629.88;5040772;28;20025;-71
2021/07/27 09:25:33;;;;;;;5.85;3.20;;;;;;;35.03;32.60;98635.19;5035885;28;20041;-71
2021/07/27 09:28:06;;;;;;;8.82;2.80;;;;;;;36.19;31.68;98625.66;5037683;28;20028;-72
2021/07/27 09:30:33;;;;;;;4.30;3.20;;;;;;;36.41;29.98;98612.69;5037943;28;20108;-71
2021/07/27 09:32:58;;;;;;;4.18;3.10;;;;;;;36.95;27.63;98604.97;5038656;28;20104;-77
2021/07/27 09:35:30;;;;;;;4.13;2.85;;;;;;;33.85;32.02;98612.78;5041128;28;20068;-70
2021/07/27 09:38:08;;;;;;;5.07;3.42;;;;;;;33.66;32.56;98616.34;5032997;28;20075;-70
2021/07/27 09:40:50;;;;;;;9.70;3.72;;;;;;;32.80;34.12;98615.94;5034868;28;20364;-70
2021/07/27 09:43:21;;;;;;;4.65;3.30;;;;;;;33.90;33.00;98620.13;5032556;28;20048;-70
2021/07/27 09:45:51;;;;;;;4.55;3.28;;;;;;;35.25;31.25;98616.75;5037306;28;20120;-71
2021/07/27 09:48:18;;;;;;;4.38;3.10;;;;;;;33.32;33.06;98613.03;5033243;28;20018;-72
2021/07/27 09:50:53;;;;;;;5.90;3.55;;;;;;;31.52;35.09;98622.66;5047276;28;20553;-70
2021/07/27 09:53:20;;;;;;;3.63;2.67;;;;;;;32.27;34.60;98619.53;5035751;28;20037;-70
2021/07/27 09:55:46;;;;;;;5.30;3.60;;;;;;;32.67;33.63;98621.59;5035603;28;20364;-70
2021/07/27 09:58:12;;;;;;;7.30;3.90;;;;;;;31.71;34.86;98627.69;5040880;28;20036;-70
2021/07/27 10:00:58;;;;;;;4.78;3.60;;;;;;;30.44;37.41;98644.94;5041881;28;20027;-70
2021/07/27 10:04:03;;;;;;;3.83;3.22;;;;;;;30.49;37.42;98630.78;5047768;28;20037;-76
2021/07/27 10:06:34;;;;;;;6.15;3.60;;;;;;;31.79;34.98;98632.34;5039250;28;20081;-71
2021/07/27 10:09:01;;;;;;;4.70;3.58;;;;;;;31.15;36.61;98635.66;5037250;28;20087;-70
2021/07/27 10:11:44;;;;;;;4.75;3.58;;;;;;;31.59;34.72;98631.28;5044957;28;20029;-70
2021/07/27 10:14:17;;;;;;;7.55;3.47;;;;;;;33.16;33.48;98620.59;5028880;28;20070;-68
2021/07/27 10:16:44;;;;;;;7.13;3.10;;;;;;;34.16;32.89;98617.59;5053367;28;20478;-68
2021/07/27 10:19:21;;;;;;;5.05;3.40;;;;;;;34.75;31.63;98626.16;5054802;28;20025;-67
2021/07/27 10:22:00;;;;;;;3.13;2.60;;;;;;;35.26;32.04;98617.56;5036718;28;20021;-69
2021/07/27 10:24:40;;;;;;;5.43;3.35;;;;;;;34.24;33.50;98611.00;5037396;28;20502;-70
2021/07/27 10:27:29;;;;;;;4.03;3.10;;;;;;;33.93;34.00;98613.78;5021205;28;20058;-70
2021/07/27 10:30:10;;;;;;;3.83;2.95;;;;;;;34.75;31.43;98617.72;5052575;28;20025;-69
2021/07/27 10:32:35;;;;;;;5.82;3.00;;;;;;;35.59;30.33;98611.38;5034019;28;20525;-69
2021/07/27 10:35:00;;;;;;;6.30;3.17;;;;;;;35.72;30.33;98606.38;5034988;28;20053;-69
2021/07/27 10:37:36;;;;;;;3.87;2.67;;;;;;;35.55;30.46;98597.22;5047240;28;20470;-68
2021/07/27 10:40:02;;;;;;;4.72;2.85;;;;;;;35.20;30.34;98616.25;5053143;28;20267;-68
2021/07/27 10:42:38;;;;;;;3.50;2.80;;;;;;;35.79;32.34;98612.13;5055095;28;20021;-69
2021/07/27 10:45:15;;;;;;;5.15;3.00;;;;;;;36.15;31.39;98616.34;5051827;28;20505;-69
2021/07/27 10:47:48;;;;;;;4.95;2.95;;;;;;;35.14;31.76;98609.31;5055361;28;20029;-68
2021/07/27 10:50:13;;;;;;;8.68;3.10;;;;;;;35.86;30.53;98617.84;5030752;28;20483;-69
2021/07/27 10:52:41;;;;;;;3.83;2.80;;;;;;;35.61;31.31;98610.97;5046257;28;20037;-68
2021/07/27 10:55:07;;;;;;;4.15;2.88;;;;;;;34.41;32.83;98615.38;5035067;28;20021;-69
2021/07/27 10:57:38;;;;;;;4.47;3.13;;;;;;;32.94;34.49;98608.75;5044640;28;20130;-69
2021/07/27 11:00:05;;;;;;;5.03;3.65;;;;;;;32.78;33.75;98604.25;5054242;28;20021;-68
2021/07/27 11:02:30;;;;;;;5.85;3.47;;;;;;;33.11;33.65;98601.22;5055094;28;20028;-68
2021/07/27 11:04:56;;;;;;;5.13;2.97;;;;;;;33.16;35.16;98600.97;5040563;28;20028;-68
2021/07/27 11:07:21;;;;;;;4.72;2.85;;;;;;;34.43;33.25;98601.78;5035492;28;20025;-69
2021/07/27 11:09:54;;;;;;;4.13;3.10;;;;;;;36.22;30.16;98593.09;5034928;28;20099;-69
2021/07/27 11:12:35;;;;;;;4.65;2.80;;;;;;;35.93;30.22;98594.66;5036178;28;20162;-69
2021/07/27 11:15:19;;;;;;;3.95;3.05;;;;;;;36.33;29.65;98590.44;5047807;28;20605;-68
2021/07/27 11:17:49;;;;;;;5.55;3.28;;;;;;;35.96;29.20;98591.06;5038228;28;20025;-69
2021/07/27 11:20:25;;;;;;;3.50;2.78;;;;;;;37.13;28.89;98585.47;5047324;28;20028;-68
2021/07/27 11:22:53;;;;;;;5.93;3.00;;;;;;;36.04;30.84;98583.56;5054374;28;20535;-68
2021/07/27 11:25:19;;;;;;;;;;;;;;;35.12;31.79;98582.38;5053813;28;20039;-68
2021/07/27 11:27:45;;;;;;;4.88;3.38;;;;;;;34.81;31.46;98588.94;5054410;28;19909;-68
2021/07/27 11:30:12;;;;;;;4.82;3.10;;;;;;;33.56;32.76;98577.59;5036574;28;20032;-68
2021/07/27 11:32:48;;;;;;;4.55;3.17;;;;;;;34.36;33.60;98581.13;5040999;28;20115;-68
2021/07/27 11:35:15;;;;;;;4.68;3.25;;;;;;;34.33;30.50;98579.06;5034219;28;20033;-70
2021/07/27 11:37:42;;;;;;;3.97;2.92;;;;;;;33.94;33.27;98578.94;5034144;28;20104;-70
2021/07/27 11:40:20;;;;;;;5.93;3.60;;;;;;;32.94;35.66;98575.13;5039687;28;20029;-70
2021/07/27 11:42:45;;;;;;;4.82;3.15;;;;;;;33.03;34.78;98563.78;5035209;28;20032;-70
2021/07/27 11:45:22;;;;;;;7.63;3.25;;;;;;;31.66;35.46;98556.00;5040201;28;20390;-70
2021/07/27 11:47:47;;;;;;;8.13;3.17;;;;;;;31.84;37.47;98555.78;5052999;28;20021;-70
2021/07/27 11:50:14;;;;;;;4.33;3.20;;;;;;;31.20;39.41;98549.66;5053796;28;20066;-71
2021/07/27 11:52:40;;;;;;;3.80;3.20;;;;;;;30.50;40.21;98551.47;5051337;28;20330;-70